Time;durP1;ratioP1;P1;durP2;ratioP2;P2;SDS_P1;SDS_P2;PMS_P1;PMS_P2;Temp;Humidity;BMP_temperature;BMP_pressure;BME280_temperature;BME280_humidity;BME280_pressure;Samples;Min_cycle;Max_cycle;Signal;HPM_P1;HPM_P2
2022/01/13 00:00:53;;;;;;;298.70;45.20;;;;;;;;;;5097900;28;20051;-81
2022/01/13 00:03:19;;;;;;;315.05;44.72;;;;;;;;;;5114614;28;20049;-81
2022/01/13 00:05:45;;;;;;;274.25;43.05;;;;;;;;;;5098069;28;20075;-81
2022/01/13 00:08:11;;;;;;;342.80;46.30;;;;;;;;;;5115711;28;20085;-81
2022/01/13 00:10:37;;;;;;;266.02;42.35;;;;;;;;;;5115716;28;20469;-81
2022/01/13 00:13:08;;;;;;;319.90;45.42;;;;;;;;;;5115512;28;20114;-82
2022/01/13 00:23:49;;;;;;;269.33;42.25;;;;;;;;;;5115204;28;20127;-81
2022/01/13 00:26:22;;;;;;;430.85;50.90;;;;;;;;;;5115213;28;20071;-81
2022/01/13 00:28:50;;;;;;;362.13;47.60;;;;;;;;;;5115401;28;20126;-81
2022/01/13 00:31:21;;;;;;;336.33;45.03;;;;;;;;;;5115523;28;20070;-81
2022/01/13 00:33:50;;;;;;;416.63;48.13;;;;;;;;;;5115774;28;20058;-81
2022/01/13 00:36:16;;;;;;;285.77;43.75;;;;;;;;;;5115670;28;20114;-81
2022/01/13 00:38:49;;;;;;;359.00;44.55;;;;;;;;;;5115631;28;20548;-81
2022/01/13 00:41:15;;;;;;;514.22;50.08;;;;;;;;;;5115997;28;20092;-81
2022/01/13 00:43:42;;;;;;;414.55;45.70;;;;;;;;;;5114258;28;20043;-81
2022/01/13 00:46:09;;;;;;;488.83;48.13;;;;;;;;;;5115146;28;20088;-81
2022/01/13 00:48:36;;;;;;;407.88;44.47;;;;;;;;;;5114795;28;20055;-82
2022/01/13 00:51:02;;;;;;;385.58;43.60;;;;;;;;;;5114083;28;20480;-80
2022/01/13 00:53:28;;;;;;;368.08;41.95;;;;;;;;;;5114409;28;20047;-81
2022/01/13 00:56:00;;;;;;;225.13;35.65;;;;;;;;;;5114926;28;20036;-81
2022/01/13 00:58:27;;;;;;;263.75;36.75;;;;;;;;;;5114767;28;20047;-81
2022/01/13 01:00:54;;;;;;;283.55;37.47;;;;;;;;;;5113564;28;20484;-80
2022/01/13 01:03:20;;;;;;;348.25;36.53;;;;;;;;;;5113645;28;20537;-81
2022/01/13 01:05:46;;;;;;;289.73;36.33;;;;;;;;;;5113699;28;20081;-80
2022/01/13 01:08:12;;;;;;;322.00;36.67;;;;;;;;;;5113409;28;20092;-81
2022/01/13 01:10:39;;;;;;;283.50;33.83;;;;;;;;;;5114257;28;20044;-81
2022/01/13 01:13:14;;;;;;;243.55;32.17;;;;;;;;;;5113300;28;20035;-81
2022/01/13 01:15:45;;;;;;;274.30;32.03;;;;;;;;;;5114465;28;20047;-82
2022/01/13 01:24:41;;;;;;;230.88;30.08;;;;;;;;;;5102545;27;20475;-81
2022/01/13 01:26:48;;;;;;;217.68;28.35;;;;;;;;;;5129735;27;20052;-81
2022/01/13 01:29:27;;;;;;;194.82;27.90;;;;;;;;;;5134849;27;20084;-81
2022/01/13 01:31:54;;;;;;;183.80;27.73;;;;;;;;;;5116222;27;20078;-81
2022/01/13 01:37:01;;;;;;;184.68;26.30;;;;;;;;;;5134413;27;20050;-81
2022/01/13 01:39:27;;;;;;;186.70;27.27;;;;;;;;;;5134634;27;20039;-81
2022/01/13 01:41:55;;;;;;;218.85;28.48;;;;;;;;;;5116217;27;20043;-81
2022/01/13 01:44:28;;;;;;;195.68;26.85;;;;;;;;;;5134650;27;20051;-81
2022/01/13 01:46:58;;;;;;;163.75;27.13;;;;;;;;;;5134419;27;20061;-82
2022/01/13 01:49:25;;;;;;;165.43;26.70;;;;;;;;;;5134322;27;20046;-81
2022/01/13 01:51:53;;;;;;;205.02;28.08;;;;;;;;;;5134085;27;20043;-81
2022/01/13 01:54:19;;;;;;;172.85;26.10;;;;;;;;;;5134219;27;20074;-81
2022/01/13 01:56:45;;;;;;;163.07;25.33;;;;;;;;;;5115901;27;20054;-81
2022/01/13 01:59:17;;;;;;;192.50;26.40;;;;;;;;;;5134054;27;20079;-82
2022/01/13 02:01:44;;;;;;;241.93;28.30;;;;;;;;;;5133998;27;20096;-81
2022/01/13 02:04:24;;;;;;;193.30;27.70;;;;;;;;;;5133769;27;20047;-81
2022/01/13 02:06:51;;;;;;;200.98;25.92;;;;;;;;;;5134114;27;20053;-81
2022/01/13 02:09:18;;;;;;;184.52;24.73;;;;;;;;;;5098553;27;20043;-81
2022/01/13 02:11:48;;;;;;;208.45;26.13;;;;;;;;;;5133857;27;20313;-81
2022/01/13 02:16:54;;;;;;;207.30;26.40;;;;;;;;;;5133869;27;20058;-81
2022/01/13 02:19:29;;;;;;;162.60;23.60;;;;;;;;;;5133597;27;20100;-81
2022/01/13 02:21:55;;;;;;;204.77;26.65;;;;;;;;;;5134109;27;20054;-81
2022/01/13 02:24:21;;;;;;;231.50;26.45;;;;;;;;;;5115561;28;20126;-82
2022/01/13 02:26:47;;;;;;;217.63;27.13;;;;;;;;;;5115419;27;20039;-81
2022/01/13 02:29:20;;;;;;;197.82;25.35;;;;;;;;;;5133499;27;20088;-82
2022/01/13 02:31:46;;;;;;;195.95;25.25;;;;;;;;;;5115432;27;20046;-81
2022/01/13 02:34:12;;;;;;;185.13;25.90;;;;;;;;;;5133822;27;20074;-81
2022/01/13 02:36:41;;;;;;;145.95;23.73;;;;;;;;;;5133806;27;20046;-81
2022/01/13 02:39:07;;;;;;;161.82;25.02;;;;;;;;;;5133509;27;20043;-81
2022/01/13 02:41:33;;;;;;;209.77;28.70;;;;;;;;;;5115055;28;20532;-81
2022/01/13 02:44:00;;;;;;;209.02;28.15;;;;;;;;;;5133706;28;20167;-82
2022/01/13 02:49:07;;;;;;;206.02;28.08;;;;;;;;;;5133333;28;20087;-81
2022/01/13 02:51:55;;;;;;;203.60;27.85;;;;;;;;;;5115227;28;20118;-81
2022/01/13 02:54:22;;;;;;;123.63;23.45;;;;;;;;;;5133616;28;20077;-80
2022/01/13 02:56:48;;;;;;;182.05;26.50;;;;;;;;;;5133306;28;20376;-82
2022/01/13 02:59:14;;;;;;;272.77;30.02;;;;;;;;;;5115193;28;20039;-81
2022/01/13 03:01:41;;;;;;;186.95;25.55;;;;;;;;;;5114997;28;20195;-81
2022/01/13 03:04:08;;;;;;;258.52;31.25;;;;;;;;;;5133274;28;20050;-81
2022/01/13 03:06:40;;;;;;;281.90;31.85;;;;;;;;;;5133271;28;20047;-82
2022/01/13 03:09:07;;;;;;;219.32;28.65;;;;;;;;;;5114900;28;20046;-81
2022/01/13 03:11:36;;;;;;;155.80;25.80;;;;;;;;;;5133435;28;20039;-81
2022/01/13 03:14:03;;;;;;;201.15;28.75;;;;;;;;;;5133257;27;20590;-82
2022/01/13 03:16:31;;;;;;;240.40;29.65;;;;;;;;;;5118566;27;20379;-82
2022/01/13 03:18:57;;;;;;;184.88;27.98;;;;;;;;;;5137172;27;20043;-82
2022/01/13 03:21:23;;;;;;;164.23;28.20;;;;;;;;;;5114895;28;20126;-80
2022/01/13 03:23:50;;;;;;;184.18;28.08;;;;;;;;;;5115559;28;20047;-80
2022/01/13 03:26:16;;;;;;;228.27;30.05;;;;;;;;;;5115428;28;20039;-80
2022/01/13 03:28:54;;;;;;;262.17;31.77;;;;;;;;;;5116453;28;20126;-81
2022/01/13 03:31:24;;;;;;;170.77;27.02;;;;;;;;;;5116573;28;20043;-80
2022/01/13 03:34:03;;;;;;;248.73;31.70;;;;;;;;;;5116286;28;20084;-81
2022/01/13 03:36:29;;;;;;;189.15;29.67;;;;;;;;;;5115077;28;20058;-82
2022/01/13 03:38:55;;;;;;;171.25;28.67;;;;;;;;;;5115192;28;20072;-81
2022/01/13 03:41:22;;;;;;;197.85;29.05;;;;;;;;;;5115260;28;20032;-81
2022/01/13 03:43:51;;;;;;;246.48;31.02;;;;;;;;;;5098110;28;20079;-81
2022/01/13 03:46:18;;;;;;;229.13;30.27;;;;;;;;;;5114821;28;20398;-81
2022/01/13 03:48:44;;;;;;;165.30;25.38;;;;;;;;;;5114841;28;20043;-82
2022/01/13 03:51:10;;;;;;;242.38;29.40;;;;;;;;;;5115119;28;20048;-81
2022/01/13 03:53:39;;;;;;;219.10;29.77;;;;;;;;;;5097867;28;20096;-80
2022/01/13 03:56:23;;;;;;;273.10;31.20;;;;;;;;;;5116135;28;20043;-80
2022/01/13 03:59:08;;;;;;;244.73;30.30;;;;;;;;;;5114700;28;20427;-81
2022/01/13 04:01:37;;;;;;;316.40;33.25;;;;;;;;;;5115904;28;20047;-81
2022/01/13 04:04:03;;;;;;;244.75;29.48;;;;;;;;;;5114735;28;20075;-81
2022/01/13 04:06:43;;;;;;;249.27;30.35;;;;;;;;;;5115684;28;20043;-82
2022/01/13 04:09:30;;;;;;;272.50;31.33;;;;;;;;;;5097387;28;20047;-81
2022/01/13 04:11:56;;;;;;;201.15;26.65;;;;;;;;;;5084086;28;20051;-82
2022/01/13 04:14:30;;;;;;;259.50;30.98;;;;;;;;;;5115695;28;20361;-80
2022/01/13 04:16:56;;;;;;;215.98;28.52;;;;;;;;;;5114520;28;20518;-81
2022/01/13 04:19:22;;;;;;;267.27;30.33;;;;;;;;;;5114421;28;20046;-81
2022/01/13 04:21:48;;;;;;;212.20;27.65;;;;;;;;;;5133351;27;20107;-82
2022/01/13 04:24:14;;;;;;;128.57;25.25;;;;;;;;;;5117669;27;20043;-82
2022/01/13 04:26:43;;;;;;;152.57;27.17;;;;;;;;;;5135921;27;20383;-82
2022/01/13 04:31:35;;;;;;;210.63;29.30;;;;;;;;;;5101184;27;20455;-81
2022/01/13 04:34:01;;;;;;;204.90;29.85;;;;;;;;;;5100240;27;20042;-81
2022/01/13 04:36:27;;;;;;;173.55;29.63;;;;;;;;;;5135938;27;20376;-82
2022/01/13 04:38:56;;;;;;;244.52;32.40;;;;;;;;;;5135575;27;20087;-81
2022/01/13 04:41:31;;;;;;;206.63;30.35;;;;;;;;;;5135620;27;20047;-81
2022/01/13 04:43:57;;;;;;;215.82;28.73;;;;;;;;;;5135546;27;20043;-80
2022/01/13 04:46:23;;;;;;;154.30;26.45;;;;;;;;;;5135308;27;20438;-81
2022/01/13 04:48:49;;;;;;;299.45;32.03;;;;;;;;;;5135237;27;20366;-81
2022/01/13 04:51:16;;;;;;;182.93;25.83;;;;;;;;;;5117183;27;20051;-80
2022/01/13 04:53:42;;;;;;;224.60;26.33;;;;;;;;;;5135657;27;20039;-81
2022/01/13 04:56:15;;;;;;;227.65;27.27;;;;;;;;;;5135254;27;20095;-82
2022/01/13 04:58:43;;;;;;;151.60;24.42;;;;;;;;;;5135356;27;20078;-82
2022/01/13 05:01:09;;;;;;;240.13;27.23;;;;;;;;;;5100011;27;20043;-81
2022/01/13 05:03:36;;;;;;;136.32;23.88;;;;;;;;;;5117078;27;20039;-81
2022/01/13 05:06:02;;;;;;;146.88;24.90;;;;;;;;;;5116852;27;20095;-81
2022/01/13 05:08:28;;;;;;;164.73;26.30;;;;;;;;;;5135001;27;20126;-81
2022/01/13 05:10:54;;;;;;;161.38;23.90;;;;;;;;;;5116824;27;20046;-81
2022/01/13 05:13:20;;;;;;;183.43;25.40;;;;;;;;;;5135033;27;20070;-81
2022/01/13 05:15:46;;;;;;;174.93;25.67;;;;;;;;;;5134854;27;20424;-81
2022/01/13 05:18:49;;;;;;;177.65;26.05;;;;;;;;;;5116555;27;20043;-82
2022/01/13 05:21:22;;;;;;;140.57;23.05;;;;;;;;;;5134813;27;20051;-81
2022/01/13 05:23:49;;;;;;;116.45;21.55;;;;;;;;;;5134805;27;20039;-81
2022/01/13 05:26:15;;;;;;;123.30;22.90;;;;;;;;;;5134743;27;20038;-81
2022/01/13 05:28:41;;;;;;;137.38;23.48;;;;;;;;;;5134943;27;20046;-80
2022/01/13 05:31:08;;;;;;;95.07;21.30;;;;;;;;;;5116637;27;20055;-82
2022/01/13 05:33:34;;;;;;;117.90;21.48;;;;;;;;;;5116388;27;20126;-82
2022/01/13 05:36:01;;;;;;;151.98;24.00;;;;;;;;;;5116344;27;20078;-82
2022/01/13 05:38:27;;;;;;;131.40;23.35;;;;;;;;;;5133887;27;20547;-81
2022/01/13 05:40:54;;;;;;;115.57;21.15;;;;;;;;;;5134318;27;20046;-82
2022/01/13 05:43:20;;;;;;;132.63;22.88;;;;;;;;;;5116229;27;20073;-81
2022/01/13 05:45:46;;;;;;;124.93;24.33;;;;;;;;;;5134332;27;20043;-82
2022/01/13 05:48:12;;;;;;;127.22;23.52;;;;;;;;;;5098937;27;20043;-80
2022/01/13 05:50:38;;;;;;;99.85;21.45;;;;;;;;;;5116074;27;20418;-82
2022/01/13 05:53:05;;;;;;;124.13;24.20;;;;;;;;;;5134185;27;20064;-81
2022/01/13 05:55:31;;;;;;;118.95;22.70;;;;;;;;;;5134130;27;20039;-81
2022/01/13 05:57:57;;;;;;;93.55;22.88;;;;;;;;;;5115900;27;20050;-82
2022/01/13 06:00:24;;;;;;;126.10;24.70;;;;;;;;;;5116058;27;20039;-81
2022/01/13 06:02:51;;;;;;;98.07;22.00;;;;;;;;;;5133962;27;20051;-81
2022/01/13 06:05:18;;;;;;;131.10;25.38;;;;;;;;;;5133817;27;20050;-82
2022/01/13 06:07:44;;;;;;;124.70;24.83;;;;;;;;;;5115499;27;20039;-81
2022/01/13 06:10:13;;;;;;;122.57;23.85;;;;;;;;;;5134164;27;20382;-82
2022/01/13 06:12:39;;;;;;;159.60;26.08;;;;;;;;;;5115768;27;20054;-81
2022/01/13 06:15:08;;;;;;;97.05;21.85;;;;;;;;;;5133897;27;20955;-82
2022/01/13 06:17:35;;;;;;;147.80;25.13;;;;;;;;;;5134013;27;20043;-81
2022/01/13 06:20:01;;;;;;;99.90;21.08;;;;;;;;;;5133635;27;20046;-82
2022/01/13 06:22:27;;;;;;;138.10;25.17;;;;;;;;;;5133400;27;20395;-81
2022/01/13 06:24:53;;;;;;;155.82;25.83;;;;;;;;;;5115500;27;20045;-82
2022/01/13 06:27:21;;;;;;;142.25;25.13;;;;;;;;;;5115580;28;20093;-81
2022/01/13 06:29:48;;;;;;;172.43;26.30;;;;;;;;;;5115188;28;20041;-81
2022/01/13 06:32:14;;;;;;;116.50;22.50;;;;;;;;;;5133586;27;20043;-81
2022/01/13 06:34:40;;;;;;;136.93;23.85;;;;;;;;;;5133597;27;20492;-81
2022/01/13 06:37:06;;;;;;;124.75;21.52;;;;;;;;;;5115071;28;20046;-80
2022/01/13 06:39:32;;;;;;;163.32;24.80;;;;;;;;;;5133715;27;20039;-81
2022/01/13 06:41:58;;;;;;;157.90;25.48;;;;;;;;;;5098552;28;20122;-81
2022/01/13 06:44:24;;;;;;;201.43;26.92;;;;;;;;;;5133647;28;20042;-82
2022/01/13 06:46:50;;;;;;;130.43;23.33;;;;;;;;;;5115254;28;20491;-81
2022/01/13 06:49:16;;;;;;;151.77;23.15;;;;;;;;;;5133496;27;20050;-81
2022/01/13 06:51:42;;;;;;;139.77;23.33;;;;;;;;;;5137353;27;20079;-81
2022/01/13 06:54:08;;;;;;;145.13;24.23;;;;;;;;;;5119493;27;20077;-81
2022/01/13 06:56:34;;;;;;;132.88;22.33;;;;;;;;;;5137896;27;20384;-82
2022/01/13 06:59:05;;;;;;;146.30;23.10;;;;;;;;;;5137650;27;20074;-81
2022/01/13 07:01:31;;;;;;;124.53;22.98;;;;;;;;;;5137711;27;20480;-82
2022/01/13 07:03:57;;;;;;;182.48;26.13;;;;;;;;;;5119064;27;20160;-82
2022/01/13 07:06:23;;;;;;;138.40;24.27;;;;;;;;;;5119162;27;20042;-81
2022/01/13 07:08:49;;;;;;;229.80;27.52;;;;;;;;;;5118987;27;20406;-80
2022/01/13 07:11:16;;;;;;;154.10;26.95;;;;;;;;;;5137400;27;20050;-81
2022/01/13 07:13:42;;;;;;;137.30;26.50;;;;;;;;;;5137172;27;20078;-81
2022/01/13 07:16:08;;;;;;;94.25;21.52;;;;;;;;;;5137287;27;20039;-81
2022/01/13 07:18:40;;;;;;;155.60;25.85;;;;;;;;;;5137247;27;20046;-81
2022/01/13 07:21:11;;;;;;;113.15;23.55;;;;;;;;;;5115381;28;20108;-80
2022/01/13 07:23:38;;;;;;;130.32;25.50;;;;;;;;;;5116544;28;20538;-81
2022/01/13 07:26:04;;;;;;;128.32;23.02;;;;;;;;;;5115166;28;20040;-81
2022/01/13 07:28:30;;;;;;;86.75;19.73;;;;;;;;;;5116344;28;20162;-81
2022/01/13 07:30:57;;;;;;;112.93;22.38;;;;;;;;;;5115127;28;20044;-82
2022/01/13 07:33:23;;;;;;;117.22;21.20;;;;;;;;;;5116196;28;20044;-81
2022/01/13 07:35:50;;;;;;;128.20;23.40;;;;;;;;;;5116480;28;20044;-82
2022/01/13 07:38:16;;;;;;;120.78;21.95;;;;;;;;;;5116223;28;20055;-81
2022/01/13 07:40:43;;;;;;;143.23;25.67;;;;;;;;;;5115477;28;20039;-82
2022/01/13 07:43:09;;;;;;;83.88;21.17;;;;;;;;;;5116235;28;20075;-80
2022/01/13 07:45:35;;;;;;;152.15;26.23;;;;;;;;;;5116220;28;20427;-81
2022/01/13 07:48:01;;;;;;;106.18;23.30;;;;;;;;;;5115782;28;20046;-81
2022/01/13 07:50:27;;;;;;;116.15;22.67;;;;;;;;;;5115209;28;20051;-81
2022/01/13 07:52:53;;;;;;;123.22;23.90;;;;;;;;;;5115123;28;20046;-83
2022/01/13 07:55:19;;;;;;;98.00;22.33;;;;;;;;;;5115592;28;20044;-81
2022/01/13 07:57:45;;;;;;;114.95;22.60;;;;;;;;;;5115909;28;20035;-81
2022/01/13 08:00:12;;;;;;;115.65;23.48;;;;;;;;;;5114488;28;20043;-82
2022/01/13 08:02:39;;;;;;;133.88;23.83;;;;;;;;;;5115007;28;20044;-81
2022/01/13 08:05:05;;;;;;;151.63;24.75;;;;;;;;;;5115574;28;20039;-80
2022/01/13 08:07:31;;;;;;;128.52;23.40;;;;;;;;;;5115552;28;20484;-81
2022/01/13 08:09:57;;;;;;;104.72;21.42;;;;;;;;;;5115636;28;20046;-81
2022/01/13 08:12:23;;;;;;;142.02;24.30;;;;;;;;;;5115656;28;20040;-81
2022/01/13 08:14:50;;;;;;;100.65;22.35;;;;;;;;;;5115428;28;20039;-82
2022/01/13 08:20:02;;;;;;;120.47;22.73;;;;;;;;;;5115673;28;20051;-81
2022/01/13 08:22:28;;;;;;;121.32;23.50;;;;;;;;;;5134689;27;20059;-81
2022/01/13 08:24:54;;;;;;;131.15;23.90;;;;;;;;;;5117791;27;20058;-82
2022/01/13 08:27:20;;;;;;;117.35;24.17;;;;;;;;;;5135765;27;20039;-81
2022/01/13 08:29:46;;;;;;;105.90;22.63;;;;;;;;;;5117708;27;20055;-81
2022/01/13 08:32:12;;;;;;;101.13;22.48;;;;;;;;;;5117396;27;20086;-81
2022/01/13 08:34:38;;;;;;;121.30;23.52;;;;;;;;;;5117636;27;20083;-81
2022/01/13 08:37:04;;;;;;;120.45;23.48;;;;;;;;;;5135485;27;20369;-81
2022/01/13 08:39:37;;;;;;;97.13;22.80;;;;;;;;;;5135617;27;20043;-81
2022/01/13 08:42:03;;;;;;;101.47;22.77;;;;;;;;;;5135696;27;20437;-82
2022/01/13 08:44:29;;;;;;;100.10;22.27;;;;;;;;;;5135545;27;20384;-82
2022/01/13 08:46:56;;;;;;;77.05;19.05;;;;;;;;;;5117541;27;20043;-82
2022/01/13 08:49:22;;;;;;;92.25;20.90;;;;;;;;;;5116975;27;20047;-81
2022/01/13 08:51:48;;;;;;;88.25;22.95;;;;;;;;;;5135365;27;20035;-80
2022/01/13 08:54:14;;;;;;;89.30;21.73;;;;;;;;;;5135143;27;20085;-81
2022/01/13 08:56:40;;;;;;;81.28;21.42;;;;;;;;;;5117097;27;20051;-80
2022/01/13 08:59:06;;;;;;;91.00;22.02;;;;;;;;;;5116882;27;20691;-80
2022/01/13 09:01:32;;;;;;;107.80;22.20;;;;;;;;;;5135185;27;20042;-80
2022/01/13 09:03:59;;;;;;;103.65;24.05;;;;;;;;;;5116917;27;20055;-81
2022/01/13 09:06:25;;;;;;;103.07;22.95;;;;;;;;;;5135075;27;20047;-80
2022/01/13 09:08:51;;;;;;;101.95;23.48;;;;;;;;;;5116795;27;20126;-82
2022/01/13 09:11:17;;;;;;;92.93;22.10;;;;;;;;;;5134844;27;20039;-81
2022/01/13 09:13:44;;;;;;;93.72;22.67;;;;;;;;;;5134189;27;20039;-82
2022/01/13 09:16:17;;;;;;;98.90;23.38;;;;;;;;;;5116569;27;20043;-81
2022/01/13 09:21:23;;;;;;;82.63;21.90;;;;;;;;;;5134305;27;20391;-81
2022/01/13 09:23:50;;;;;;;101.68;22.73;;;;;;;;;;5134544;27;20047;-81
2022/01/13 09:26:16;;;;;;;95.85;23.17;;;;;;;;;;5134848;27;20054;-81
2022/01/13 09:28:42;;;;;;;88.95;22.52;;;;;;;;;;5134626;27;20571;-81
2022/01/13 09:31:08;;;;;;;116.53;24.45;;;;;;;;;;5099638;27;20047;-82
2022/01/13 09:33:34;;;;;;;119.03;24.60;;;;;;;;;;5116354;27;20054;-77
2022/01/13 09:36:01;;;;;;;95.38;22.55;;;;;;;;;;5099340;27;20043;-80
2022/01/13 09:38:27;;;;;;;91.75;21.02;;;;;;;;;;5134162;27;20043;-81
2022/01/13 09:40:54;;;;;;;94.00;21.90;;;;;;;;;;5134583;27;20047;-81
2022/01/13 09:43:25;;;;;;;100.70;22.58;;;;;;;;;;5134260;27;20385;-81
2022/01/13 09:45:52;;;;;;;84.53;21.10;;;;;;;;;;5116222;27;20054;-81
2022/01/13 09:48:18;;;;;;;90.43;20.35;;;;;;;;;;5134222;27;20035;-81
2022/01/13 09:50:46;;;;;;;113.03;22.90;;;;;;;;;;5115887;27;20043;-81
2022/01/13 09:53:12;;;;;;;88.70;21.08;;;;;;;;;;5134289;27;20050;-81
2022/01/13 09:55:39;;;;;;;86.40;20.13;;;;;;;;;;5115712;27;20122;-81
2022/01/13 09:58:10;;;;;;;100.28;21.50;;;;;;;;;;5115848;27;20515;-82
2022/01/13 10:00:36;;;;;;;95.60;21.73;;;;;;;;;;5115751;27;20502;-83
2022/01/13 10:03:09;;;;;;;101.60;22.90;;;;;;;;;;5133744;27;20147;-81
2022/01/13 10:05:37;;;;;;;113.57;21.65;;;;;;;;;;5115882;27;20042;-82
2022/01/13 10:08:03;;;;;;;81.55;20.50;;;;;;;;;;5133818;27;20127;-82
2022/01/13 10:10:31;;;;;;;80.40;19.83;;;;;;;;;;5133723;27;20502;-82
2022/01/13 10:13:02;;;;;;;89.72;21.83;;;;;;;;;;5133755;27;20480;-81
2022/01/13 10:16:23;;;;;;;93.68;23.05;;;;;;;;;;5115580;27;20039;-81
2022/01/13 10:18:44;;;;;;;87.07;20.05;;;;;;;;;;5122674;27;20050;-82
2022/01/13 10:21:11;;;;;;;90.55;21.52;;;;;;;;;;5115441;27;20042;-82
2022/01/13 10:23:38;;;;;;;90.38;21.08;;;;;;;;;;5133676;27;20091;-82
2022/01/13 10:26:12;;;;;;;101.20;22.25;;;;;;;;;;5133448;27;20123;-82
2022/01/13 10:28:38;;;;;;;118.38;24.02;;;;;;;;;;5133592;27;20126;-83
2022/01/13 10:31:05;;;;;;;87.85;20.38;;;;;;;;;;5098124;27;20054;-82
2022/01/13 10:33:31;;;;;;;86.68;22.08;;;;;;;;;;5115330;27;20035;-83
2022/01/13 10:36:09;;;;;;;92.70;22.35;;;;;;;;;;5114983;27;20047;-82
2022/01/13 10:38:55;;;;;;;102.00;22.95;;;;;;;;;;5114984;28;20123;-83
2022/01/13 10:41:30;;;;;;;115.25;23.60;;;;;;;;;;5115211;27;20450;-84
2022/01/13 10:44:13;;;;;;;82.43;21.70;;;;;;;;;;5115217;28;20454;-81
2022/01/13 10:46:55;;;;;;;80.03;22.02;;;;;;;;;;5133366;28;20357;-82
2022/01/13 10:49:30;;;;;;;104.40;23.00;;;;;;;;;;5115139;28;20047;-81
2022/01/13 10:52:15;;;;;;;97.20;23.30;;;;;;;;;;5114983;28;20151;-82
2022/01/13 10:54:41;;;;;;;77.53;21.45;;;;;;;;;;5133463;28;20118;-83
2022/01/13 10:57:17;;;;;;;93.55;21.95;;;;;;;;;;5133188;28;20039;-83
2022/01/13 10:59:43;;;;;;;78.60;22.75;;;;;;;;;;5133558;28;20046;-81
2022/01/13 11:02:10;;;;;;;94.30;22.20;;;;;;;;;;5133044;28;20985;-81
2022/01/13 11:04:37;;;;;;;94.68;23.42;;;;;;;;;;5133386;28;20053;-81
2022/01/13 11:07:15;;;;;;;87.30;23.25;;;;;;;;;;5115292;28;20078;-81
2022/01/13 11:09:43;;;;;;;88.82;23.92;;;;;;;;;;5132946;28;20472;-81
2022/01/13 11:12:14;;;;;;;89.60;23.10;;;;;;;;;;5133149;28;20050;-81
2022/01/13 11:14:42;;;;;;;82.03;22.95;;;;;;;;;;5132904;28;20050;-81
2022/01/13 11:17:10;;;;;;;100.07;25.50;;;;;;;;;;5133183;28;20173;-82
2022/01/13 11:19:37;;;;;;;87.80;25.17;;;;;;;;;;5132957;28;20047;-82
2022/01/13 11:22:03;;;;;;;73.07;22.35;;;;;;;;;;5114257;28;20059;-81
2022/01/13 11:24:29;;;;;;;88.22;25.00;;;;;;;;;;5132917;28;20039;-81
2022/01/13 11:26:56;;;;;;;66.35;21.13;;;;;;;;;;5133054;28;20035;-81
2022/01/13 11:29:23;;;;;;;71.30;20.55;;;;;;;;;;5114687;28;20449;-81
2022/01/13 11:31:51;;;;;;;76.10;22.65;;;;;;;;;;5133120;28;20384;-81
2022/01/13 11:34:18;;;;;;;67.97;20.58;;;;;;;;;;5133037;28;20046;-81
2022/01/13 11:36:44;;;;;;;70.72;19.98;;;;;;;;;;5135113;27;20104;-81
2022/01/13 11:39:10;;;;;;;66.38;20.45;;;;;;;;;;5118550;27;20556;-81
2022/01/13 11:41:56;;;;;;;63.08;19.88;;;;;;;;;;5118395;27;20123;-82
2022/01/13 11:44:23;;;;;;;62.00;20.38;;;;;;;;;;5118552;27;20130;-82
2022/01/13 11:46:50;;;;;;;66.50;20.55;;;;;;;;;;5136767;27;20083;-82
2022/01/13 11:49:39;;;;;;;60.85;19.67;;;;;;;;;;5136528;27;20079;-82
2022/01/13 11:52:41;;;;;;;57.78;19.75;;;;;;;;;;5117879;27;20047;-82
2022/01/13 11:54:56;;;;;;;57.13;18.98;;;;;;;;;;5133046;27;20043;-81
2022/01/13 11:57:26;;;;;;;58.42;19.45;;;;;;;;;;5136237;27;20129;-82
2022/01/13 11:59:59;;;;;;;58.65;19.67;;;;;;;;;;5118061;27;20083;-82
2022/01/13 12:02:26;;;;;;;59.22;19.98;;;;;;;;;;5136432;27;20043;-82
2022/01/13 12:05:15;;;;;;;63.00;20.52;;;;;;;;;;5136404;27;20114;-81
2022/01/13 12:07:50;;;;;;;53.80;19.88;;;;;;;;;;5136173;27;20047;-82
2022/01/13 12:10:37;;;;;;;53.13;20.20;;;;;;;;;;5117565;27;20440;-82
2022/01/13 12:13:36;;;;;;;55.38;19.77;;;;;;;;;;5119168;27;20051;-82
2022/01/13 12:16:02;;;;;;;47.63;18.88;;;;;;;;;;5079775;27;20043;-82
2022/01/13 12:18:49;;;;;;;62.00;20.95;;;;;;;;;;5136022;27;20039;-83
2022/01/13 12:21:25;;;;;;;58.20;20.98;;;;;;;;;;5118560;27;20429;-82
2022/01/13 12:23:51;;;;;;;59.42;22.10;;;;;;;;;;5136020;27;20084;-82
2022/01/13 12:26:33;;;;;;;60.03;20.77;;;;;;;;;;5135905;27;20035;-81
2022/01/13 12:29:11;;;;;;;65.60;21.63;;;;;;;;;;5135580;27;20476;-82
2022/01/13 12:31:56;;;;;;;53.60;20.85;;;;;;;;;;5135886;27;20088;-82
2022/01/13 12:34:23;;;;;;;70.97;22.02;;;;;;;;;;5135441;27;20480;-82
2022/01/13 12:36:50;;;;;;;67.25;22.52;;;;;;;;;;5135774;27;20062;-82
2022/01/13 12:39:17;;;;;;;69.57;22.15;;;;;;;;;;5135865;27;20443;-82
2022/01/13 12:41:59;;;;;;;64.85;22.15;;;;;;;;;;5135432;27;20049;-82
2022/01/13 12:47:22;;;;;;;67.22;23.00;;;;;;;;;;5079171;27;20439;-83
2022/01/13 12:49:48;;;;;;;66.25;22.40;;;;;;;;;;5135304;27;20185;-82
2022/01/13 12:52:19;;;;;;;61.58;22.83;;;;;;;;;;5135211;27;20043;-82
2022/01/13 12:54:45;;;;;;;73.82;25.05;;;;;;;;;;5135463;27;20050;-82
2022/01/13 12:57:11;;;;;;;67.57;22.58;;;;;;;;;;5100102;27;20172;-83
2022/01/13 12:59:37;;;;;;;56.08;20.38;;;;;;;;;;5100197;27;20084;-81
2022/01/13 13:02:04;;;;;;;59.88;22.23;;;;;;;;;;5135302;27;20046;-82
2022/01/13 13:04:35;;;;;;;65.85;23.30;;;;;;;;;;5135020;27;20043;-82
2022/01/13 13:07:01;;;;;;;68.60;23.30;;;;;;;;;;5135441;27;20502;-82
2022/01/13 13:09:30;;;;;;;68.07;24.48;;;;;;;;;;5135042;27;20132;-82
2022/01/13 13:12:00;;;;;;;77.03;24.58;;;;;;;;;;5135054;27;20054;-82
2022/01/13 13:14:35;;;;;;;79.00;26.52;;;;;;;;;;5134930;27;20039;-82
2022/01/13 13:17:01;;;;;;;70.25;24.90;;;;;;;;;;5134806;27;20046;-81
2022/01/13 13:19:27;;;;;;;74.70;24.13;;;;;;;;;;5135079;27;20126;-82
2022/01/13 13:21:53;;;;;;;78.60;26.60;;;;;;;;;;5134556;27;20043;-82
2022/01/13 13:24:23;;;;;;;66.65;24.15;;;;;;;;;;5116696;27;20043;-82
2022/01/13 13:26:49;;;;;;;72.65;24.30;;;;;;;;;;5134571;27;20039;-81
2022/01/13 13:29:25;;;;;;;82.97;27.77;;;;;;;;;;5134284;27;20503;-82
2022/01/13 13:31:55;;;;;;;79.05;26.25;;;;;;;;;;5134845;27;20523;-82
2022/01/13 13:34:21;;;;;;;77.13;25.63;;;;;;;;;;5116306;27;20462;-82
2022/01/13 13:36:48;;;;;;;87.82;27.30;;;;;;;;;;5099263;27;20043;-82
2022/01/13 13:39:21;;;;;;;83.25;27.80;;;;;;;;;;5134550;27;20125;-82
2022/01/13 13:41:50;;;;;;;85.32;27.98;;;;;;;;;;5116067;27;20046;-81
2022/01/13 13:44:18;;;;;;;77.72;25.60;;;;;;;;;;5134197;27;20054;-82
2022/01/13 13:46:44;;;;;;;86.30;27.38;;;;;;;;;;5116200;27;20074;-82
2022/01/13 13:49:11;;;;;;;89.70;28.33;;;;;;;;;;5116023;27;20039;-82
2022/01/13 13:51:38;;;;;;;86.57;29.60;;;;;;;;;;5115925;27;20420;-82
2022/01/13 13:54:11;;;;;;;69.80;27.85;;;;;;;;;;5115958;27;20122;-82
2022/01/13 13:56:46;;;;;;;84.95;30.17;;;;;;;;;;5134068;27;20096;-82
2022/01/13 13:59:15;;;;;;;78.13;27.38;;;;;;;;;;5115663;27;20054;-82
2022/01/13 14:01:42;;;;;;;80.00;29.05;;;;;;;;;;5115797;27;20043;-82
2022/01/13 14:04:08;;;;;;;83.07;28.70;;;;;;;;;;5134027;27;20039;-82
2022/01/13 14:06:38;;;;;;;72.90;28.27;;;;;;;;;;5098856;27;20042;-82
2022/01/13 14:09:05;;;;;;;79.03;28.63;;;;;;;;;;5115272;27;20051;-82
2022/01/13 14:11:49;;;;;;;79.40;29.35;;;;;;;;;;5134098;27;20039;-82
2022/01/13 14:14:17;;;;;;;84.78;31.58;;;;;;;;;;5133925;27;20095;-82
2022/01/13 14:16:44;;;;;;;70.95;29.77;;;;;;;;;;5115870;27;20043;-82
2022/01/13 14:19:12;;;;;;;69.28;27.48;;;;;;;;;;5133850;27;20082;-82
2022/01/13 14:21:45;;;;;;;73.03;30.02;;;;;;;;;;5133583;27;20055;-82
2022/01/13 14:24:11;;;;;;;82.93;31.52;;;;;;;;;;5133608;27;20051;-82
2022/01/13 14:26:37;;;;;;;66.93;29.30;;;;;;;;;;5115551;28;20096;-82
2022/01/13 14:29:04;;;;;;;69.47;29.27;;;;;;;;;;5115164;27;20123;-83
2022/01/13 14:31:37;;;;;;;66.10;28.48;;;;;;;;;;5133690;27;20053;-82
2022/01/13 14:34:03;;;;;;;75.85;30.40;;;;;;;;;;5115211;27;20054;-81
2022/01/13 14:36:36;;;;;;;73.53;31.65;;;;;;;;;;5115121;28;20488;-81
2022/01/13 14:39:07;;;;;;;66.07;29.08;;;;;;;;;;5133578;27;20515;-82
2022/01/13 14:41:39;;;;;;;63.70;30.08;;;;;;;;;;5133463;27;20479;-82
2022/01/13 14:44:05;;;;;;;69.80;31.52;;;;;;;;;;5133387;28;20392;-81
2022/01/13 14:46:33;;;;;;;55.70;25.80;;;;;;;;;;5133434;28;20043;-80
2022/01/13 14:49:00;;;;;;;66.40;29.98;;;;;;;;;;5115298;28;20472;-82
2022/01/13 14:51:26;;;;;;;70.43;31.95;;;;;;;;;;5098344;28;21506;-81